createdAt,value
2019-01-21T00:02:33.567Z,101855.69
2019-01-21T00:07:39.584Z,101840.55
2019-01-21T00:12:45.737Z,101848.00
2019-01-21T00:17:51.714Z,101863.00
2019-01-21T00:22:57.494Z,101872.47
2019-01-21T00:28:03.557Z,101861.19
2019-01-21T00:33:09.315Z,101867.75
2019-01-21T00:38:15.233Z,101876.07
2019-01-21T00:43:21.070Z,101863.63
2019-01-21T00:48:27.467Z,101867.58
2019-01-21T00:53:33.522Z,101863.52
2019-01-21T00:58:39.494Z,101870.30
2019-01-21T01:03:45.713Z,101859.50
2019-01-21T01:08:51.949Z,101854.99
2019-01-21T01:13:58.030Z,101855.02
2019-01-21T01:19:04.030Z,101853.72
2019-01-21T01:24:09.969Z,101850.73
2019-01-21T01:29:15.949Z,101849.45
2019-01-21T01:34:21.698Z,101833.80
2019-01-21T01:39:27.585Z,101829.25
2019-01-21T01:44:33.676Z,101835.39
2019-01-21T01:49:39.640Z,101833.75
2019-01-21T01:54:45.932Z,101850.42
2019-01-21T01:59:52.092Z,101866.56
2019-01-21T02:04:57.772Z,101876.56
2019-01-21T02:10:04.782Z,101873.50
2019-01-21T02:15:12.469Z,101864.93
2019-01-21T02:20:19.266Z,101868.00
2019-01-21T02:25:43.354Z,101856.20
2019-01-21T02:31:01.415Z,101844.16
2019-01-21T02:36:18.961Z,101840.67
2019-01-21T02:41:29.466Z,101838.79
2019-01-21T02:46:45.123Z,101850.06
2019-01-21T02:52:09.132Z,101827.34
2019-01-21T02:57:18.703Z,101839.27
2019-01-21T03:02:35.860Z,101835.79
2019-01-21T03:08:00.159Z,101831.05
2019-01-21T03:13:25.969Z,101822.20
2019-01-21T03:18:50.111Z,101822.44
2019-01-21T03:24:14.220Z,101818.47
2019-01-21T03:29:32.074Z,101810.89
2019-01-21T03:34:53.113Z,101814.73
2019-01-21T03:40:08.130Z,101794.71
2019-01-21T03:45:32.248Z,101787.89
2019-01-21T03:50:57.451Z,101788.19
2019-01-21T03:56:06.012Z,101789.55
2019-01-21T04:01:24.044Z,101782.00
2019-01-21T04:06:36.163Z,101785.32
2019-01-21T04:11:47.873Z,101788.91
2019-01-21T04:17:03.671Z,101770.89
2019-01-21T04:22:14.719Z,101785.92
2019-01-21T04:27:27.337Z,101769.84
2019-01-21T04:32:48.341Z,101774.17
2019-01-21T04:38:03.225Z,101774.38
2019-01-21T04:43:12.289Z,101772.51
2019-01-21T04:48:37.368Z,101767.33
2019-01-21T04:54:02.794Z,101772.35
2019-01-21T04:59:15.213Z,101772.34
2019-01-21T05:04:24.468Z,101760.36
2019-01-21T05:10:11.919Z,101756.67
2019-01-21T05:15:56.084Z,101760.20
2019-01-21T05:21:20.275Z,101758.44
2019-01-21T05:27:02.734Z,101764.33
2019-01-21T05:32:21.098Z,101768.92
2019-01-21T05:37:43.640Z,101757.04
2019-01-21T05:43:03.677Z,101761.80
2019-01-21T05:48:24.601Z,101764.59
2019-01-21T05:53:45.838Z,101768.98
2019-01-21T05:58:55.048Z,101754.86
2019-01-21T06:04:29.568Z,101765.87
2019-01-21T06:09:41.707Z,101766.56
2019-01-21T06:15:22.513Z,101769.39
2019-01-21T06:20:42.657Z,101760.84
2019-01-21T06:26:30.477Z,101764.75
2019-01-21T06:31:44.971Z,101768.48
2019-01-21T06:37:18.244Z,101782.45
2019-01-21T06:42:30.051Z,101778.18
2019-01-21T06:47:57.096Z,101777.38
2019-01-21T06:53:18.243Z,101785.30
2019-01-21T06:58:30.253Z,101782.08
2019-01-21T07:03:56.104Z,101785.94
2019-01-21T07:09:14.648Z,101792.77
2019-01-21T07:14:44.225Z,101794.12
2019-01-21T07:20:02.158Z,101791.98
2019-01-21T07:25:20.610Z,101799.61
2019-01-21T07:30:59.986Z,101794.52
2019-01-21T07:36:33.789Z,101784.75
2019-01-21T07:41:52.098Z,101788.91
2019-01-21T07:47:15.250Z,101784.15
2019-01-21T07:53:04.128Z,101784.56
2019-01-21T07:58:31.708Z,101782.04
2019-01-21T08:04:00.424Z,101803.05
2019-01-21T08:09:15.305Z,101785.63
2019-01-21T08:14:40.798Z,101797.62
2019-01-21T08:20:03.801Z,101810.22
2019-01-21T08:25:23.798Z,101793.39
2019-01-21T08:30:41.982Z,101788.64
2019-01-21T08:36:10.648Z,101801.31
2019-01-21T08:41:28.510Z,101795.44
2019-01-21T08:46:52.814Z,101798.22
2019-01-21T08:52:13.792Z,101804.38
2019-01-21T08:57:41.407Z,101817.48
2019-01-21T09:02:54.926Z,101804.38
2019-01-21T09:08:25.676Z,101778.11
2019-01-21T09:13:38.099Z,101778.97
2019-01-21T09:18:53.245Z,101774.27
2019-01-21T09:24:34.528Z,101777.47
2019-01-21T09:30:06.064Z,101792.98
2019-01-21T09:35:36.579Z,101795.54
2019-01-21T09:41:18.868Z,101803.83
2019-01-21T09:46:28.021Z,101816.68
2019-01-21T09:51:33.863Z,101818.91
2019-01-21T09:56:41.455Z,101819.28
2019-01-21T10:01:47.604Z,101812.90
2019-01-21T10:06:56.643Z,101828.33
2019-01-21T10:12:28.101Z,101832.83
2019-01-21T10:17:52.192Z,101820.08
2019-01-21T10:23:17.593Z,101800.27
2019-01-21T10:28:35.461Z,101811.28
2019-01-21T10:33:59.467Z,101805.64
2019-01-21T10:39:37.825Z,101807.37
2019-01-21T10:44:53.272Z,101804.31
2019-01-21T10:50:14.309Z,101806.63
2019-01-21T10:55:44.448Z,101819.40
2019-01-21T11:01:08.967Z,101807.69
2019-01-21T11:06:32.169Z,101807.48
2019-01-21T11:11:57.881Z,101805.84
2019-01-21T11:17:29.576Z,101821.76
2019-01-21T11:22:49.372Z,101814.72
2019-01-21T11:28:01.553Z,101807.46
2019-01-21T11:33:34.030Z,101803.45
2019-01-21T11:38:50.854Z,101798.44
2019-01-21T11:44:24.480Z,101790.12
2019-01-21T11:49:42.879Z,101790.06
2019-01-21T11:54:57.826Z,101790.12
2019-01-21T12:00:16.015Z,101795.67
2019-01-21T12:05:34.694Z,101798.44
2019-01-21T12:11:06.523Z,101780.80
2019-01-21T12:16:44.495Z,101778.98
2019-01-21T12:22:27.027Z,101772.10
2019-01-21T12:27:44.986Z,101776.33
2019-01-21T12:33:09.262Z,101778.27
2019-01-21T12:38:41.684Z,101769.16
2019-01-21T12:44:02.928Z,101773.38
2019-01-21T12:49:23.744Z,101781.26
2019-01-21T12:54:40.728Z,101777.27
2019-01-21T12:59:55.869Z,101770.08
2019-01-21T13:05:07.769Z,101760.07
2019-01-21T13:10:29.009Z,101767.53
2019-01-21T13:15:59.145Z,101764.00
2019-01-21T13:21:43.334Z,101761.45
2019-01-21T13:27:07.616Z,101765.55
2019-01-21T13:32:22.408Z,101757.78
2019-01-21T13:37:46.893Z,101762.89
2019-01-21T13:43:02.858Z,101762.97
2019-01-21T13:48:17.023Z,101771.38
2019-01-21T13:53:38.391Z,101777.20
2019-01-21T13:59:13.346Z,101770.95
2019-01-21T14:04:40.828Z,101757.11
2019-01-21T14:09:58.731Z,101757.74
2019-01-21T14:15:27.461Z,101748.77
2019-01-21T14:20:45.610Z,101754.96
2019-01-21T14:26:08.341Z,101744.06
2019-01-21T14:31:19.643Z,101741.92
2019-01-21T14:36:32.666Z,101744.66
2019-01-21T14:42:18.431Z,101750.62
2019-01-21T14:47:52.887Z,101748.77
2019-01-21T14:53:19.872Z,101749.17
2019-01-21T14:58:45.319Z,101747.39
2019-01-21T15:04:16.569Z,101741.09
2019-01-21T15:09:44.973Z,101744.97
2019-01-21T15:15:12.143Z,101739.98
2019-01-21T15:20:21.223Z,101737.42
2019-01-21T15:25:30.271Z,101739.61
2019-01-21T15:30:45.174Z,101728.09
2019-01-21T15:36:11.262Z,101727.31
2019-01-21T15:41:29.530Z,101725.66
2019-01-21T15:46:53.500Z,101724.14
2019-01-21T15:52:11.407Z,101719.41
2019-01-21T15:57:21.643Z,101716.45
2019-01-21T16:02:36.454Z,101719.16
2019-01-21T16:07:47.341Z,101714.81
2019-01-21T16:13:05.209Z,101717.73
2019-01-21T16:18:17.191Z,101713.27
2019-01-21T16:23:41.041Z,101701.48
2019-01-21T16:28:53.151Z,101712.88
2019-01-21T16:34:12.303Z,101704.92
2019-01-21T16:39:27.427Z,101703.27
2019-01-21T16:44:33.309Z,101705.06
2019-01-21T16:49:39.286Z,101694.04
2019-01-21T16:54:45.484Z,101687.02
2019-01-21T16:59:51.515Z,101690.19
2019-01-21T17:04:57.548Z,101678.52
2019-01-21T17:10:03.828Z,101687.09
2019-01-21T17:15:11.983Z,101689.25
2019-01-21T17:20:21.341Z,101677.57
2019-01-21T17:25:27.047Z,101673.20
2019-01-21T17:30:32.908Z,101666.45
2019-01-21T17:35:39.013Z,101673.71
2019-01-21T17:40:45.286Z,101673.06
2019-01-21T17:45:51.260Z,101667.04
2019-01-21T17:50:57.554Z,101686.42
2019-01-21T17:56:03.701Z,101679.78
2019-01-21T18:01:09.671Z,101681.39
2019-01-21T18:06:15.876Z,101673.19
2019-01-21T18:11:22.319Z,101688.89
2019-01-21T18:16:28.384Z,101691.20
2019-01-21T18:21:39.942Z,101690.79
2019-01-21T18:26:41.994Z,101693.58
2019-01-21T18:31:47.863Z,101690.56
2019-01-21T18:36:53.913Z,101695.55
2019-01-21T18:42:00.156Z,101694.77
2019-01-21T18:47:06.262Z,101700.84
2019-01-21T18:52:12.269Z,101698.42
2019-01-21T18:57:18.346Z,101693.48
2019-01-21T19:02:24.225Z,101704.97
2019-01-21T19:07:30.080Z,101699.94
2019-01-21T19:12:36.377Z,101692.81
2019-01-21T19:17:42.366Z,101693.47
2019-01-21T19:22:48.337Z,101691.79
2019-01-21T19:27:54.273Z,101687.39
2019-01-21T19:33:00.505Z,101687.83
2019-01-21T19:38:06.560Z,101680.59
2019-01-21T19:43:12.949Z,101689.09
2019-01-21T19:48:19.105Z,101670.91
2019-01-21T19:53:26.051Z,101675.05
2019-01-21T19:58:32.065Z,101663.79
2019-01-21T20:03:38.137Z,101671.33
2019-01-21T20:08:44.210Z,101663.59
2019-01-21T20:13:51.648Z,101672.41
2019-01-21T20:18:57.782Z,101669.16
2019-01-21T20:24:05.825Z,101661.42
2019-01-21T20:29:11.803Z,101650.33
2019-01-21T20:34:17.774Z,101647.64
2019-01-21T20:39:23.671Z,101653.81
2019-01-21T20:44:29.714Z,101650.00
2019-01-21T20:49:35.503Z,101650.70
2019-01-21T20:54:41.445Z,101658.14
2019-01-21T20:59:47.424Z,101649.70
2019-01-21T21:04:53.530Z,101648.16
2019-01-21T21:09:59.495Z,101645.75
2019-01-21T21:15:22.229Z,101641.31
2019-01-21T21:20:28.321Z,101642.97
2019-01-21T21:25:34.456Z,101633.51
2019-01-21T21:30:40.344Z,101646.45
2019-01-21T21:35:46.960Z,101646.70
2019-01-21T21:40:54.008Z,101648.89
2019-01-21T21:46:01.863Z,101646.70
2019-01-21T21:51:08.276Z,101646.33
2019-01-21T21:56:14.552Z,101655.16
2019-01-21T22:01:24.075Z,101644.14
2019-01-21T22:06:28.077Z,101639.67
2019-01-21T22:11:34.066Z,101645.41
2019-01-21T22:16:40.115Z,101650.03
2019-01-21T22:21:46.141Z,101629.05
2019-01-21T22:26:51.926Z,101635.55
2019-01-21T22:31:57.687Z,101628.39
2019-01-21T22:37:03.619Z,101623.28
2019-01-21T22:42:09.539Z,101618.92
2019-01-21T22:47:15.389Z,101618.15
2019-01-21T22:52:21.292Z,101614.57
2019-01-21T22:57:27.570Z,101623.54
2019-01-21T23:02:34.161Z,101617.00
2019-01-21T23:07:40.225Z,101612.28
2019-01-21T23:12:46.189Z,101619.57
2019-01-21T23:17:52.078Z,101624.82
2019-01-21T23:22:58.014Z,101619.98
2019-01-21T23:28:05.331Z,101604.59
2019-01-21T23:33:11.188Z,101601.41
2019-01-21T23:38:17.184Z,101596.41
2019-01-21T23:43:23.102Z,101586.05
2019-01-21T23:48:29.653Z,101585.92
2019-01-21T23:53:35.830Z,101588.49
2019-01-21T23:58:42.093Z,101593.59
